createdAt,value
2022-11-23T00:00:01.317Z,7.8
2022-11-23T00:01:00.885Z,7.8
2022-11-23T00:02:01.533Z,7.8
2022-11-23T00:03:01.120Z,7.9
2022-11-23T00:04:01.711Z,7.8
2022-11-23T00:05:01.302Z,7.9
2022-11-23T00:06:00.879Z,7.9
2022-11-23T00:07:01.481Z,7.9
2022-11-23T00:08:01.075Z,7.9
2022-11-23T00:09:01.773Z,7.9
2022-11-23T00:10:01.301Z,7.9
2022-11-23T00:11:00.885Z,7.9
2022-11-23T00:12:01.485Z,7.9
2022-11-23T00:13:01.079Z,7.9
2022-11-23T00:14:01.652Z,7.9
2022-11-23T00:15:01.235Z,7.9
2022-11-23T00:16:01.818Z,7.9
2022-11-23T00:17:01.482Z,7.9
2022-11-23T00:18:01.054Z,7.9
2022-11-23T00:19:01.624Z,7.9
2022-11-23T00:20:01.203Z,7.9
2022-11-23T00:21:01.783Z,7.9
2022-11-23T00:22:01.389Z,7.9
2022-11-23T00:23:00.942Z,7.8
2022-11-23T00:24:01.539Z,7.8
2022-11-23T00:25:01.179Z,7.8
2022-11-23T00:26:01.722Z,7.8
2022-11-23T00:27:01.328Z,7.8
2022-11-23T00:28:00.886Z,7.8
2022-11-23T00:29:01.479Z,7.8
2022-11-23T00:30:01.095Z,7.9
2022-11-23T00:31:01.669Z,7.9
2022-11-23T00:32:01.273Z,7.9
2022-11-23T00:33:01.865Z,7.9
2022-11-23T00:34:01.455Z,8
2022-11-23T00:35:01.042Z,8
2022-11-23T00:36:01.629Z,8
2022-11-23T00:37:01.233Z,8
2022-11-23T00:38:01.877Z,8
2022-11-23T00:39:01.483Z,8
2022-11-23T00:40:01.033Z,8.1
2022-11-23T00:41:01.759Z,8.1
2022-11-23T00:42:01.284Z,8.1
2022-11-23T00:43:01.842Z,8.1
2022-11-23T00:44:01.425Z,8.1
2022-11-23T00:45:01.012Z,8.1
2022-11-23T00:46:01.583Z,8.1
2022-11-23T00:47:01.186Z,8.2
2022-11-23T00:48:01.752Z,8.2
2022-11-23T00:49:01.336Z,8.2
2022-11-23T00:50:00.937Z,8.2
2022-11-23T00:51:01.490Z,8.2
2022-11-23T00:52:01.091Z,8.2
2022-11-23T00:53:01.662Z,8.2
2022-11-23T00:54:01.252Z,8.2
2022-11-23T00:55:01.854Z,8.2
2022-11-23T00:56:01.442Z,8.2
2022-11-23T00:57:01.070Z,8.2
2022-11-23T00:58:01.612Z,8.2
2022-11-23T00:59:01.196Z,8.2
2022-11-23T01:00:01.766Z,8.3
2022-11-23T01:01:01.371Z,8.2
2022-11-23T01:02:00.983Z,8.2
2022-11-23T01:03:01.518Z,8.3
2022-11-23T01:04:01.100Z,8.3
2022-11-23T01:05:01.675Z,8.3
2022-11-23T01:06:01.264Z,8.3
2022-11-23T01:07:01.867Z,8.3
2022-11-23T01:08:01.450Z,8.3
2022-11-23T01:09:01.041Z,8.3
2022-11-23T01:10:01.621Z,8.3
2022-11-23T01:11:01.205Z,8.3
2022-11-23T01:12:01.796Z,8.3
2022-11-23T01:13:01.419Z,8.3
2022-11-23T01:14:00.962Z,8.3
2022-11-23T01:15:01.549Z,8.3
2022-11-23T01:16:01.135Z,8.3
2022-11-23T01:17:01.739Z,8.3
2022-11-23T01:18:01.382Z,8.3
2022-11-23T01:19:00.908Z,8.3
2022-11-23T01:20:01.489Z,8.3
2022-11-23T01:21:01.073Z,8.3
2022-11-23T01:22:01.668Z,8.3
2022-11-23T01:23:01.271Z,8.4
2022-11-23T01:24:01.828Z,8.4
2022-11-23T01:25:01.410Z,8.4
2022-11-23T01:26:00.991Z,8.5
2022-11-23T01:27:01.567Z,8.4
2022-11-23T01:28:01.168Z,8.4
2022-11-23T01:29:01.757Z,8.4
2022-11-23T01:30:01.338Z,8.4
2022-11-23T01:31:00.922Z,8.4
2022-11-23T01:32:01.494Z,8.4
2022-11-23T01:33:01.100Z,8.3
2022-11-23T01:34:01.650Z,8.3
2022-11-23T01:35:01.238Z,8.4
2022-11-23T01:36:01.811Z,8.3
2022-11-23T01:37:01.395Z,8.3
2022-11-23T01:38:01.000Z,8.3
2022-11-23T01:39:01.568Z,8.3
2022-11-23T01:40:01.155Z,8.3
2022-11-23T01:41:01.735Z,8.3
2022-11-23T01:42:01.313Z,8.3
2022-11-23T01:43:00.888Z,8.2
2022-11-23T01:44:01.484Z,8.3
2022-11-23T01:45:01.089Z,8.2
2022-11-23T01:46:01.650Z,8.2
2022-11-23T01:47:01.233Z,8.3
2022-11-23T01:48:01.811Z,8.2
2022-11-23T01:49:01.422Z,8.2
2022-11-23T01:50:01.020Z,8.1
2022-11-23T01:51:01.595Z,8.2
2022-11-23T01:52:01.176Z,8.1
2022-11-23T01:53:01.757Z,8.1
2022-11-23T01:54:01.358Z,8.1
2022-11-23T01:55:05.439Z,8.1
2022-11-23T01:56:01.487Z,8.2
2022-11-23T01:57:01.070Z,8.1
2022-11-23T01:58:01.653Z,8.1
2022-11-23T01:59:01.235Z,8.1
2022-11-23T02:00:01.844Z,8
2022-11-23T02:01:01.486Z,8
2022-11-23T02:02:01.075Z,8
2022-11-23T02:03:01.633Z,7.9
2022-11-23T02:04:01.215Z,7.9
2022-11-23T02:05:01.840Z,8
2022-11-23T02:06:01.431Z,8
2022-11-23T02:07:01.013Z,8
2022-11-23T02:08:01.589Z,7.9
2022-11-23T02:09:01.176Z,8
2022-11-23T02:10:01.768Z,8
2022-11-23T02:11:01.349Z,8
2022-11-23T02:12:00.930Z,8
2022-11-23T02:13:01.515Z,8
2022-11-23T02:14:01.096Z,8
2022-11-23T02:15:01.691Z,8
2022-11-23T02:16:01.292Z,8
2022-11-23T02:17:01.873Z,7.9
2022-11-23T02:18:01.495Z,8
2022-11-23T02:19:01.067Z,8
2022-11-23T02:20:01.656Z,8
2022-11-23T02:21:01.260Z,8.1
2022-11-23T02:22:01.814Z,8
2022-11-23T02:23:01.395Z,8
2022-11-23T02:24:00.982Z,8.1
2022-11-23T02:25:01.564Z,8.1
2022-11-23T02:26:01.170Z,8.1
2022-11-23T02:27:01.735Z,8
2022-11-23T02:28:01.315Z,8.1
2022-11-23T02:29:00.898Z,8.1
2022-11-23T02:30:01.478Z,8.1
2022-11-23T02:31:01.079Z,8
2022-11-23T02:32:01.654Z,8
2022-11-23T02:33:01.261Z,8.1
2022-11-23T02:34:01.820Z,8.1
2022-11-23T02:35:01.403Z,8.1
2022-11-23T02:36:01.000Z,8.1
2022-11-23T02:37:01.589Z,8.2
2022-11-23T02:38:01.169Z,8.2
2022-11-23T02:39:01.748Z,8.2
2022-11-23T02:40:01.332Z,8.2
2022-11-23T02:41:00.914Z,8.3
2022-11-23T02:42:01.510Z,8.3
2022-11-23T02:43:01.089Z,8.3
2022-11-23T02:44:01.665Z,8.3
2022-11-23T02:45:01.247Z,8.3
2022-11-23T02:46:01.829Z,8.3
2022-11-23T02:47:01.518Z,8.3
2022-11-23T02:48:01.060Z,8.3
2022-11-23T02:49:01.671Z,8.3
2022-11-23T02:50:01.276Z,8.3
2022-11-23T02:51:01.835Z,8.3
2022-11-23T02:52:01.439Z,8.3
2022-11-23T02:53:01.022Z,8.4
2022-11-23T02:54:01.605Z,8.4
2022-11-23T02:55:01.192Z,8.4
2022-11-23T02:56:01.775Z,8.4
2022-11-23T02:57:01.381Z,8.4
2022-11-23T02:58:00.963Z,8.4
2022-11-23T02:59:01.538Z,8.4
2022-11-23T03:00:01.122Z,8.5
2022-11-23T03:01:01.813Z,8.4
2022-11-23T03:02:01.370Z,8.5
2022-11-23T03:03:00.929Z,8.4
2022-11-23T03:04:01.511Z,8.5
2022-11-23T03:05:01.119Z,8.5
2022-11-23T03:06:01.673Z,8.5
2022-11-23T03:07:01.273Z,8.5
2022-11-23T03:08:01.858Z,8.5
2022-11-23T03:09:01.442Z,8.5
2022-11-23T03:10:01.024Z,8.6
2022-11-23T03:11:01.607Z,8.5
2022-11-23T03:12:01.205Z,8.5
2022-11-23T03:13:01.807Z,8.5
2022-11-23T03:14:01.393Z,8.5
2022-11-23T03:15:00.976Z,8.6
2022-11-23T03:16:01.557Z,8.6
2022-11-23T03:17:01.158Z,8.6
2022-11-23T03:18:01.742Z,8.6
2022-11-23T03:19:01.376Z,8.7
2022-11-23T03:20:00.912Z,8.7
2022-11-23T03:21:01.510Z,8.7
2022-11-23T03:22:01.093Z,8.6
2022-11-23T03:23:01.694Z,8.6
2022-11-23T03:24:01.276Z,8.7
2022-11-23T03:25:01.873Z,8.7
2022-11-23T03:26:01.457Z,8.7
2022-11-23T03:27:01.045Z,8.7
2022-11-23T03:28:01.630Z,8.7
2022-11-23T03:29:01.232Z,8.7
2022-11-23T03:30:01.795Z,8.7
2022-11-23T03:31:01.393Z,8.7
2022-11-23T03:32:00.984Z,8.7
2022-11-23T03:33:01.566Z,8.8
2022-11-23T03:34:01.168Z,8.7
2022-11-23T03:35:01.721Z,8.7
2022-11-23T03:36:01.300Z,8.7
2022-11-23T03:37:00.906Z,8.7
2022-11-23T03:38:01.461Z,8.7
2022-11-23T03:39:01.063Z,8.7
2022-11-23T03:40:01.646Z,8.7
2022-11-23T03:41:01.234Z,8.7
2022-11-23T03:42:01.822Z,8.7
2022-11-23T03:43:01.412Z,8.6
2022-11-23T03:44:00.997Z,8.5
2022-11-23T03:45:01.597Z,8.4
2022-11-23T03:46:01.179Z,8.4
2022-11-23T03:47:01.762Z,8.4
2022-11-23T03:48:01.340Z,8.4
2022-11-23T03:49:00.921Z,8.3
2022-11-23T03:50:01.521Z,8.3
2022-11-23T03:51:01.108Z,8.3
2022-11-23T03:52:01.693Z,8.3
2022-11-23T03:53:01.303Z,8.3
2022-11-23T03:54:01.858Z,8.2
2022-11-23T03:55:01.476Z,8.1
2022-11-23T03:56:01.058Z,8.1
2022-11-23T03:57:01.643Z,8.1
2022-11-23T03:58:01.226Z,8
2022-11-23T03:59:01.808Z,8
2022-11-23T04:00:01.412Z,8
2022-11-23T04:01:01.039Z,8
2022-11-23T04:02:01.587Z,8
2022-11-23T04:03:01.168Z,8
2022-11-23T04:04:01.748Z,7.9
2022-11-23T04:05:01.358Z,8
2022-11-23T04:06:00.906Z,8
2022-11-23T04:07:01.512Z,8
2022-11-23T04:08:01.097Z,8
2022-11-23T04:09:02.565Z,7.9
2022-11-23T04:10:01.214Z,8
2022-11-23T04:11:01.817Z,7.9
2022-11-23T04:12:01.403Z,7.9
2022-11-23T04:13:01.004Z,7.9
2022-11-23T04:14:01.564Z,7.9
2022-11-23T04:15:01.204Z,7.9
2022-11-23T04:16:01.773Z,7.9
2022-11-23T04:17:01.369Z,7.8
2022-11-23T04:18:00.939Z,7.8
2022-11-23T04:19:01.549Z,7.8
2022-11-23T04:20:01.127Z,7.8
2022-11-23T04:21:01.703Z,7.9
2022-11-23T04:22:01.283Z,7.9
2022-11-23T04:23:01.878Z,7.9
2022-11-23T04:24:01.461Z,7.8
2022-11-23T04:25:01.066Z,7.8
2022-11-23T04:26:01.632Z,7.9
2022-11-23T04:27:01.231Z,7.9
2022-11-23T04:28:01.786Z,7.9
2022-11-23T04:29:01.368Z,7.9
2022-11-23T04:30:00.953Z,7.9
2022-11-23T04:31:01.522Z,8
2022-11-23T04:32:01.132Z,7.9
2022-11-23T04:33:01.712Z,7.9
2022-11-23T04:34:01.295Z,7.9
2022-11-23T04:35:00.866Z,7.8
2022-11-23T04:36:01.459Z,7.9
2022-11-23T04:37:01.039Z,7.8
2022-11-23T04:38:01.614Z,7.9
2022-11-23T04:39:01.197Z,7.9
2022-11-23T04:40:01.777Z,7.9
2022-11-23T04:41:01.402Z,7.9
2022-11-23T04:42:01.002Z,7.9
2022-11-23T04:43:02.223Z,7.9
2022-11-23T04:44:00.878Z,7.9
2022-11-23T04:45:01.461Z,7.9
2022-11-23T04:46:01.044Z,7.9
2022-11-23T04:47:01.615Z,7.9
2022-11-23T04:48:01.230Z,7.9
2022-11-23T04:49:01.772Z,7.9
2022-11-23T04:50:01.353Z,7.9
2022-11-23T04:51:00.922Z,7.9
2022-11-23T04:52:01.502Z,7.9
2022-11-23T04:53:01.105Z,7.9
2022-11-23T04:54:01.656Z,7.9
2022-11-23T04:55:01.238Z,7.8
2022-11-23T04:56:01.814Z,7.9
2022-11-23T04:57:01.419Z,7.8
2022-11-23T04:58:01.016Z,7.8
2022-11-23T04:59:01.593Z,7.8
2022-11-23T05:00:01.173Z,7.8
2022-11-23T05:01:01.802Z,7.8
2022-11-23T05:02:01.402Z,7.8
2022-11-23T05:03:01.000Z,7.8
2022-11-23T05:04:01.557Z,7.8
2022-11-23T05:05:01.136Z,7.8
2022-11-23T05:06:01.719Z,7.8
2022-11-23T05:07:01.300Z,7.9
2022-11-23T05:08:00.894Z,7.9
2022-11-23T05:09:01.447Z,7.9
2022-11-23T05:10:01.026Z,7.9
2022-11-23T05:11:01.608Z,7.9
2022-11-23T05:12:01.191Z,7.8
2022-11-23T05:13:01.860Z,7.8
2022-11-23T05:14:01.441Z,7.8
2022-11-23T05:15:01.020Z,7.8
2022-11-23T05:16:01.602Z,7.8
2022-11-23T05:17:01.186Z,7.8
2022-11-23T05:18:01.785Z,7.8
2022-11-23T05:19:01.388Z,7.8
2022-11-23T05:20:01.005Z,7.8
2022-11-23T05:21:01.525Z,7.8
2022-11-23T05:22:01.105Z,7.8
2022-11-23T05:23:01.706Z,7.8
2022-11-23T05:24:01.309Z,7.8
2022-11-23T05:25:00.861Z,7.8
2022-11-23T05:26:01.439Z,7.8
2022-11-23T05:27:01.028Z,7.8
2022-11-23T05:28:11.303Z,7.8
2022-11-23T05:29:01.191Z,7.8
2022-11-23T05:30:01.774Z,7.8
2022-11-23T05:31:01.357Z,7.8
2022-11-23T05:32:00.941Z,7.8
2022-11-23T05:33:01.513Z,7.7
2022-11-23T05:34:01.115Z,7.8
2022-11-23T05:35:01.681Z,7.7
2022-11-23T05:36:01.264Z,7.7
2022-11-23T05:37:01.836Z,7.7
2022-11-23T05:38:01.420Z,7.7
2022-11-23T05:39:01.023Z,7.7
2022-11-23T05:40:01.594Z,7.8
2022-11-23T05:41:01.198Z,7.8
2022-11-23T05:42:01.753Z,7.8
2022-11-23T05:43:01.333Z,7.8
2022-11-23T05:44:00.906Z,7.8
2022-11-23T05:45:01.534Z,7.7
2022-11-23T05:46:01.118Z,7.8
2022-11-23T05:47:01.705Z,7.7
2022-11-23T05:48:01.288Z,7.8
2022-11-23T05:49:01.859Z,7.8
2022-11-23T05:50:01.501Z,7.8
2022-11-23T05:51:04.986Z,7.8
2022-11-23T05:52:01.626Z,7.8
2022-11-23T05:53:01.210Z,7.8
2022-11-23T05:54:01.790Z,7.8
2022-11-23T05:55:01.401Z,7.8
2022-11-23T05:56:01.007Z,7.9
2022-11-23T05:57:01.571Z,7.9
2022-11-23T05:58:01.153Z,7.9
2022-11-23T05:59:01.734Z,7.8
2022-11-23T06:00:01.337Z,7.9
2022-11-23T06:01:00.912Z,7.9
2022-11-23T06:02:01.463Z,7.9
2022-11-23T06:03:01.046Z,7.9
2022-11-23T06:04:01.676Z,7.9
2022-11-23T06:05:01.308Z,7.8
2022-11-23T06:06:00.863Z,7.9
2022-11-23T06:07:01.474Z,7.8
2022-11-23T06:08:01.059Z,7.8
2022-11-23T06:09:01.642Z,7.8
2022-11-23T06:10:01.228Z,7.8
2022-11-23T06:11:01.819Z,7.8
2022-11-23T06:12:01.406Z,7.8
2022-11-23T06:13:00.995Z,7.8
2022-11-23T06:14:01.583Z,7.8
2022-11-23T06:15:01.164Z,7.8
2022-11-23T06:16:01.767Z,7.8
2022-11-23T06:17:01.370Z,7.8
2022-11-23T06:18:00.936Z,7.8
2022-11-23T06:19:01.509Z,7.9
2022-11-23T06:20:01.090Z,7.9
2022-11-23T06:21:01.740Z,8
2022-11-23T06:22:01.344Z,8
2022-11-23T06:23:00.908Z,8
2022-11-23T06:24:01.489Z,8
2022-11-23T06:25:01.072Z,8
2022-11-23T06:26:01.657Z,8
2022-11-23T06:27:01.261Z,7.9
2022-11-23T06:28:01.821Z,7.9
2022-11-23T06:29:01.410Z,7.8
2022-11-23T06:30:00.992Z,7.9
2022-11-23T06:31:01.564Z,7.9
2022-11-23T06:32:01.168Z,8
2022-11-23T06:33:01.778Z,7.9
2022-11-23T06:34:01.360Z,7.9
2022-11-23T06:35:01.376Z,7.9
2022-11-23T06:36:01.051Z,7.9
2022-11-23T06:37:01.629Z,8
2022-11-23T06:38:01.751Z,7.9
2022-11-23T06:39:01.336Z,7.9
2022-11-23T06:40:00.916Z,7.9
2022-11-23T06:41:01.503Z,7.9
2022-11-23T06:42:16.731Z,7.9
2022-11-23T06:43:01.666Z,7.9
2022-11-23T06:44:01.246Z,8
2022-11-23T06:45:01.829Z,8
2022-11-23T06:46:01.412Z,7.9
2022-11-23T06:47:00.994Z,7.9
2022-11-23T06:48:01.587Z,7.9
2022-11-23T06:49:01.194Z,7.9
2022-11-23T06:50:01.755Z,7.9
2022-11-23T06:51:01.337Z,7.9
2022-11-23T06:52:00.913Z,7.9
2022-11-23T06:53:01.514Z,7.9
2022-11-23T06:54:01.118Z,7.9
2022-11-23T06:55:01.669Z,7.9
2022-11-23T06:56:01.252Z,7.9
2022-11-23T06:57:01.835Z,7.9
2022-11-23T06:58:01.424Z,7.9
2022-11-23T06:59:01.029Z,7.9
2022-11-23T07:00:01.582Z,7.9
2022-11-23T07:01:01.247Z,7.9
2022-11-23T07:02:01.751Z,7.9
2022-11-23T07:03:01.335Z,7.9
2022-11-23T07:04:00.997Z,7.9
2022-11-23T07:05:01.525Z,7.9
2022-11-23T07:06:01.112Z,7.9
2022-11-23T07:07:01.697Z,7.9
2022-11-23T07:08:01.292Z,7.9
2022-11-23T07:09:00.890Z,8
2022-11-23T07:10:05.535Z,8
2022-11-23T07:11:00.993Z,8
2022-11-23T07:12:01.577Z,8
2022-11-23T07:13:01.160Z,8
2022-11-23T07:14:01.760Z,8
2022-11-23T07:15:01.347Z,8
2022-11-23T07:16:00.929Z,8
2022-11-23T07:17:01.514Z,7.9
2022-11-23T07:18:01.101Z,8
2022-11-23T07:19:01.708Z,8
2022-11-23T07:20:01.291Z,8
2022-11-23T07:21:00.944Z,8
2022-11-23T07:22:01.439Z,8
2022-11-23T07:23:01.026Z,8
2022-11-23T07:24:01.626Z,8
2022-11-23T07:25:01.228Z,8
2022-11-23T07:26:01.795Z,8
2022-11-23T07:27:01.376Z,8
2022-11-23T07:28:00.951Z,7.9
2022-11-23T07:29:01.534Z,8
2022-11-23T07:30:01.137Z,8
2022-11-23T07:31:01.699Z,8
2022-11-23T07:32:01.287Z,8
2022-11-23T07:33:00.871Z,8.1
2022-11-23T07:34:01.453Z,8.1
2022-11-23T07:35:01.067Z,8.1
2022-11-23T07:36:01.626Z,8.1
2022-11-23T07:37:02.234Z,8.1
2022-11-23T07:38:00.980Z,8.2
2022-11-23T07:39:01.368Z,8.2
2022-11-23T07:40:01.469Z,8.1
2022-11-23T07:41:01.235Z,8.1
2022-11-23T07:43:01.358Z,8.2
2022-11-23T07:44:00.944Z,8.2
2022-11-23T07:45:01.540Z,8.2
2022-11-23T07:46:01.121Z,8.3
2022-11-23T07:47:01.704Z,8.3
2022-11-23T07:48:01.288Z,8.4
2022-11-23T07:49:00.872Z,8.4
2022-11-23T07:50:01.475Z,8.4
2022-11-23T07:51:01.057Z,8.4
2022-11-23T07:52:01.660Z,8.4
2022-11-23T07:53:01.267Z,8.3
2022-11-23T07:54:01.818Z,8.3
2022-11-23T07:55:01.404Z,8.3
2022-11-23T07:56:00.987Z,8.2
2022-11-23T07:57:01.596Z,8.3
2022-11-23T07:58:01.181Z,8.2
2022-11-23T07:59:01.754Z,8.2
2022-11-23T08:00:01.339Z,8.2
2022-11-23T08:01:00.930Z,8.2
2022-11-23T08:02:01.535Z,8.3
2022-11-23T08:04:01.694Z,8.3
2022-11-23T08:05:01.276Z,8.3
2022-11-23T08:06:01.860Z,8.4
2022-11-23T08:07:01.468Z,8.4
2022-11-23T08:08:01.058Z,8.4
2022-11-23T08:09:01.669Z,8.5
2022-11-23T08:10:01.254Z,8.4
2022-11-23T08:11:01.840Z,8.5
2022-11-23T08:12:01.439Z,8.6
2022-11-23T08:13:01.020Z,8.6
2022-11-23T08:14:01.605Z,8.6
2022-11-23T08:15:01.191Z,8.6
2022-11-23T08:16:01.763Z,8.6
2022-11-23T08:17:01.370Z,8.6
2022-11-23T08:18:00.933Z,8.6
2022-11-23T08:19:01.535Z,8.5
2022-11-23T08:20:01.119Z,8.6
2022-11-23T08:21:01.695Z,8.7
2022-11-23T08:22:01.352Z,8.7
2022-11-23T08:23:00.868Z,8.7
2022-11-23T08:24:01.438Z,8.6
2022-11-23T08:25:01.044Z,8.7
2022-11-23T08:26:01.606Z,8.7
2022-11-23T08:27:01.209Z,8.8
2022-11-23T08:28:01.770Z,8.8
2022-11-23T08:29:01.349Z,8.8
2022-11-23T08:30:00.922Z,8.8
2022-11-23T08:31:01.492Z,8.8
2022-11-23T08:32:01.095Z,8.8
2022-11-23T08:33:01.656Z,8.8
2022-11-23T08:34:03.415Z,8.8
2022-11-23T08:35:01.778Z,8.8
2022-11-23T08:36:01.360Z,8.8
2022-11-23T08:37:00.962Z,8.8
2022-11-23T08:38:01.533Z,8.8
2022-11-23T08:39:01.120Z,8.8
2022-11-23T08:40:01.723Z,8.8
2022-11-23T08:41:01.331Z,8.9
2022-11-23T08:42:00.893Z,8.9
2022-11-23T08:43:01.479Z,8.9
2022-11-23T08:44:01.071Z,8.9
2022-11-23T08:45:01.666Z,8.9
2022-11-23T08:46:04.821Z,9
2022-11-23T08:47:01.785Z,9
2022-11-23T08:48:01.368Z,9
2022-11-23T08:49:00.956Z,9.1
2022-11-23T08:50:01.550Z,9.1
2022-11-23T08:51:01.151Z,9.2
2022-11-23T08:52:01.711Z,9.1
2022-11-23T08:53:01.295Z,9.3
2022-11-23T08:54:00.884Z,9.3
2022-11-23T08:55:01.469Z,9.3
2022-11-23T08:56:01.072Z,9.2
2022-11-23T08:57:01.646Z,9.3
2022-11-23T08:58:01.225Z,9.3
2022-11-23T08:59:01.807Z,9.4
2022-11-23T09:00:01.392Z,9.3
2022-11-23T09:01:00.993Z,9.4
2022-11-23T09:02:01.697Z,9.4
2022-11-23T09:03:01.204Z,9.3
2022-11-23T09:04:01.777Z,9.3
2022-11-23T09:05:01.364Z,9.3
2022-11-23T09:06:00.951Z,9.3
2022-11-23T09:07:01.538Z,9.3
2022-11-23T09:08:01.150Z,9.2
2022-11-23T09:09:01.724Z,9.2
2022-11-23T09:10:01.311Z,9.2
2022-11-23T09:11:00.890Z,9.2
2022-11-23T09:12:01.494Z,9.2
2022-11-23T09:13:01.109Z,9.3
2022-11-23T09:14:01.665Z,9.3
2022-11-23T09:15:01.249Z,9.2
2022-11-23T09:16:01.821Z,9.2
2022-11-23T09:17:01.433Z,9.2
2022-11-23T09:18:01.021Z,9.2
2022-11-23T09:19:01.604Z,9.2
2022-11-23T09:20:01.190Z,9.3
2022-11-23T09:21:01.775Z,9.3
2022-11-23T09:22:01.379Z,9.3
2022-11-23T09:23:00.972Z,9.3
2022-11-23T09:24:01.521Z,9.3
2022-11-23T09:25:01.200Z,9.3
2022-11-23T09:26:01.708Z,9.3
2022-11-23T09:27:01.295Z,9.3
2022-11-23T09:28:00.867Z,9.3
2022-11-23T09:29:01.467Z,9.3
2022-11-23T09:30:01.049Z,9.3
2022-11-23T09:31:01.653Z,9.3
2022-11-23T09:32:01.240Z,9.3
2022-11-23T09:33:01.828Z,9.3
2022-11-23T09:34:01.416Z,9.4
2022-11-23T09:35:01.002Z,9.4
2022-11-23T09:36:01.599Z,9.4
2022-11-23T09:37:01.184Z,9.4
2022-11-23T09:38:01.762Z,9.4
2022-11-23T09:39:01.373Z,9.4
2022-11-23T09:40:00.954Z,9.5
2022-11-23T09:41:01.571Z,9.4
2022-11-23T09:42:01.161Z,9.5
2022-11-23T09:43:01.736Z,9.4
2022-11-23T09:44:01.319Z,9.4
2022-11-23T09:45:00.930Z,9.4
2022-11-23T09:46:01.495Z,9.4
2022-11-23T09:47:01.075Z,9.4
2022-11-23T09:48:01.884Z,9.3
2022-11-23T09:49:01.323Z,9.4
2022-11-23T09:50:00.889Z,9.4
2022-11-23T09:51:01.470Z,9.4
2022-11-23T09:52:01.073Z,9.4
2022-11-23T09:53:01.643Z,9.4
2022-11-23T09:54:01.239Z,9.4
2022-11-23T09:55:01.813Z,9.4
2022-11-23T09:56:01.395Z,9.4
2022-11-23T09:57:02.045Z,9.4
2022-11-23T09:58:01.758Z,9.5
2022-11-23T09:59:01.220Z,9.5
2022-11-23T10:00:01.802Z,9.5
2022-11-23T10:01:01.409Z,9.5
2022-11-23T10:02:01.038Z,9.6
2022-11-23T10:03:01.576Z,9.6
2022-11-23T10:04:01.161Z,9.5
2022-11-23T10:05:01.734Z,9.6
2022-11-23T10:06:01.317Z,9.6
2022-11-23T10:07:00.918Z,9.5
2022-11-23T10:08:01.489Z,9.6
2022-11-23T10:09:01.070Z,9.6
2022-11-23T10:10:01.645Z,9.6
2022-11-23T10:11:01.227Z,9.6
2022-11-23T10:12:01.797Z,9.5
2022-11-23T10:13:01.396Z,9.5
2022-11-23T10:14:00.981Z,9.6
2022-11-23T10:15:01.557Z,9.6
2022-11-23T10:16:01.144Z,9.6
2022-11-23T10:17:01.748Z,9.6
2022-11-23T10:18:01.356Z,9.6
2022-11-23T10:19:00.933Z,9.6
2022-11-23T10:20:01.506Z,9.6
2022-11-23T10:21:01.088Z,9.6
2022-11-23T10:22:01.673Z,9.6
2022-11-23T10:23:01.328Z,9.7
2022-11-23T10:24:01.842Z,9.7
2022-11-23T10:25:01.430Z,9.6
2022-11-23T10:26:01.010Z,9.7
2022-11-23T10:27:01.588Z,9.7
2022-11-23T10:28:01.187Z,9.7
2022-11-23T10:29:01.740Z,9.7
2022-11-23T10:30:01.343Z,9.7
2022-11-23T10:31:00.909Z,9.8
2022-11-23T10:32:01.492Z,9.8
2022-11-23T10:33:01.101Z,9.7
2022-11-23T10:34:01.678Z,9.7
2022-11-23T10:35:01.282Z,9.7
2022-11-23T10:36:01.835Z,9.7
2022-11-23T10:37:01.416Z,9.8
2022-11-23T10:38:00.999Z,9.7
2022-11-23T10:39:01.579Z,9.8
2022-11-23T10:40:01.177Z,9.8
2022-11-23T10:41:01.753Z,9.8
2022-11-23T10:42:01.338Z,9.8
2022-11-23T10:43:00.920Z,9.8
2022-11-23T10:44:01.502Z,9.8
2022-11-23T10:45:01.099Z,9.8
2022-11-23T10:46:01.686Z,9.8
2022-11-23T10:47:01.267Z,9.7
2022-11-23T10:48:01.852Z,9.7
2022-11-23T10:49:01.456Z,9.7
2022-11-23T10:50:01.039Z,9.6
2022-11-23T10:51:01.661Z,9.7
2022-11-23T10:52:01.244Z,9.7
2022-11-23T10:53:01.820Z,9.7
2022-11-23T10:54:05.086Z,9.7
2022-11-23T10:55:00.943Z,9.7
2022-11-23T10:56:01.550Z,9.7
2022-11-23T10:57:01.155Z,9.7
2022-11-23T10:58:01.721Z,9.7
2022-11-23T10:59:01.302Z,9.7
2022-11-23T11:00:00.886Z,9.7
2022-11-23T11:01:01.469Z,9.7
2022-11-23T11:02:01.138Z,9.7
2022-11-23T11:03:01.641Z,9.7
2022-11-23T11:04:01.251Z,9.7
2022-11-23T11:05:01.845Z,9.8
2022-11-23T11:06:10.068Z,9.7
2022-11-23T11:07:00.983Z,9.8
2022-11-23T11:08:01.583Z,9.8
2022-11-23T11:09:03.361Z,9.8
2022-11-23T11:10:01.704Z,9.8
2022-11-23T11:11:01.285Z,9.8
2022-11-23T11:12:01.886Z,9.9
2022-11-23T11:13:01.469Z,10
2022-11-23T11:14:01.049Z,9.9
2022-11-23T11:15:09.899Z,10
2022-11-23T11:16:01.178Z,9.9
2022-11-23T11:17:01.785Z,9.8
2022-11-23T11:18:01.369Z,9.8
2022-11-23T11:19:00.956Z,9.8
2022-11-23T11:20:01.539Z,9.8
2022-11-23T11:21:01.144Z,9.8
2022-11-23T11:22:01.729Z,9.8
2022-11-23T11:23:01.320Z,9.8
2022-11-23T11:24:00.942Z,9.8
2022-11-23T11:25:01.472Z,9.8
2022-11-23T11:26:01.055Z,9.8
2022-11-23T11:27:01.657Z,9.7
2022-11-23T11:28:01.258Z,9.7
2022-11-23T11:29:01.827Z,9.8
2022-11-23T11:30:01.417Z,9.8
2022-11-23T11:31:01.002Z,9.8
2022-11-23T11:32:01.586Z,9.8
2022-11-23T11:33:01.189Z,9.8
2022-11-23T11:34:01.760Z,9.9
2022-11-23T11:35:01.342Z,9.9
2022-11-23T11:36:00.929Z,9.8
2022-11-23T11:37:01.538Z,9.8
2022-11-23T11:38:01.120Z,9.8
2022-11-23T11:39:17.506Z,9.8
2022-11-23T11:40:01.268Z,9.8
2022-11-23T11:41:01.846Z,9.9
2022-11-23T11:42:01.434Z,9.9
2022-11-23T11:43:01.027Z,10
2022-11-23T11:44:01.621Z,10
2022-11-23T11:45:01.205Z,9.9
2022-11-23T11:47:01.320Z,9.8
2022-11-23T11:48:00.902Z,9.8
2022-11-23T11:49:01.503Z,9.9
2022-11-23T11:50:01.085Z,9.8
2022-11-23T11:51:01.670Z,9.9
2022-11-23T11:52:01.307Z,9.9
2022-11-23T11:53:01.880Z,10
2022-11-23T11:54:01.561Z,10
2022-11-23T11:55:01.162Z,9.9
2022-11-23T11:56:01.654Z,9.9
2022-11-23T11:57:01.245Z,9.9
2022-11-23T11:58:01.822Z,9.9
2022-11-23T11:59:01.405Z,9.9
2022-11-23T12:00:01.004Z,9.9
2022-11-23T12:01:01.570Z,9.9
2022-11-23T12:02:01.155Z,9.9
2022-11-23T12:03:01.799Z,9.9
2022-11-23T12:04:01.398Z,9.9
2022-11-23T12:05:00.983Z,10
2022-11-23T12:06:01.574Z,10
2022-11-23T12:07:01.156Z,9.9
2022-11-23T12:08:01.736Z,9.9
2022-11-23T12:09:01.342Z,10
2022-11-23T12:10:00.890Z,10
2022-11-23T12:11:01.479Z,10
2022-11-23T12:12:01.065Z,10
2022-11-23T12:13:01.635Z,10
2022-11-23T12:14:01.216Z,10
2022-11-23T12:15:01.801Z,10
2022-11-23T12:16:01.417Z,10.1
2022-11-23T12:17:25.227Z,10
2022-11-23T12:18:01.540Z,10
2022-11-23T12:19:01.123Z,10
2022-11-23T12:20:01.704Z,10
2022-11-23T12:21:01.405Z,10
2022-11-23T12:22:00.924Z,10
2022-11-23T12:23:01.460Z,10
2022-11-23T12:24:01.046Z,9.9
2022-11-23T12:25:01.708Z,10
2022-11-23T12:26:01.294Z,9.9
2022-11-23T12:27:01.882Z,9.9
2022-11-23T12:28:01.465Z,10
2022-11-23T12:29:01.048Z,9.9
2022-11-23T12:30:01.633Z,9.8
2022-11-23T12:31:01.218Z,9.8
2022-11-23T12:32:01.822Z,9.8
2022-11-23T12:33:01.406Z,9.7
2022-11-23T12:34:01.035Z,9.7
2022-11-23T12:35:01.626Z,9.7
2022-11-23T12:36:01.213Z,9.7
2022-11-23T12:37:01.815Z,9.8
2022-11-23T12:38:01.413Z,9.8
2022-11-23T12:39:00.985Z,9.9
2022-11-23T12:40:01.564Z,10
2022-11-23T12:41:01.170Z,10.1
2022-11-23T12:42:01.731Z,10.2
2022-11-23T12:43:01.334Z,10.3
2022-11-23T12:44:00.899Z,10.3
2022-11-23T12:45:01.498Z,10.4
2022-11-23T12:46:01.086Z,10.6
2022-11-23T12:47:01.666Z,10.5
2022-11-23T12:48:01.267Z,10.5
2022-11-23T12:49:01.833Z,10.4
2022-11-23T12:50:01.413Z,10.4
2022-11-23T12:51:00.995Z,10.4
2022-11-23T12:52:01.573Z,10.5
2022-11-23T12:53:01.176Z,10.5
2022-11-23T12:54:01.783Z,10.5
2022-11-23T12:55:01.389Z,10.5
2022-11-23T12:56:00.977Z,10.5
2022-11-23T12:57:01.604Z,10.4
2022-11-23T12:58:01.459Z,10.5
2022-11-23T12:59:01.798Z,10.3
2022-11-23T13:00:01.392Z,10.4
2022-11-23T13:01:01.021Z,10.3
2022-11-23T13:02:01.641Z,10.2
2022-11-23T13:03:01.242Z,10.2
2022-11-23T13:04:01.814Z,10.2
2022-11-23T13:05:01.395Z,10.2
2022-11-23T13:06:00.981Z,10.2
2022-11-23T13:08:01.235Z,10.1
2022-11-23T13:09:01.795Z,10.2
2022-11-23T13:10:01.380Z,10.1
2022-11-23T13:11:00.962Z,10
2022-11-23T13:12:01.539Z,10.1
2022-11-23T13:13:01.174Z,10.1
2022-11-23T13:14:01.704Z,10.1
2022-11-23T13:15:01.291Z,10.1
2022-11-23T13:16:02.056Z,10.1
2022-11-23T13:17:01.802Z,10.1
2022-11-23T13:18:01.086Z,10
2022-11-23T13:19:04.824Z,10
2022-11-23T13:20:01.210Z,10
2022-11-23T13:21:01.793Z,10
2022-11-23T13:22:01.401Z,9.9
2022-11-23T13:23:00.983Z,9.9
2022-11-23T13:24:01.583Z,9.8
2022-11-23T13:25:01.207Z,9.9
2022-11-23T13:26:01.746Z,10
2022-11-23T13:27:01.332Z,9.9
2022-11-23T13:28:00.925Z,9.9
2022-11-23T13:29:01.524Z,9.9
2022-11-23T13:30:01.153Z,9.8
2022-11-23T13:31:14.789Z,9.8
2022-11-23T13:32:01.299Z,9.9
2022-11-23T13:33:00.953Z,9.9
2022-11-23T13:34:01.518Z,9.8
2022-11-23T13:35:01.105Z,9.9
2022-11-23T13:36:07.613Z,9.8
2022-11-23T13:37:16.573Z,9.8
2022-11-23T13:38:01.782Z,9.8
2022-11-23T13:39:01.364Z,9.8
2022-11-23T13:40:00.951Z,9.7
2022-11-23T13:41:01.520Z,9.8
2022-11-23T13:42:01.105Z,9.8
2022-11-23T13:43:01.701Z,9.8
2022-11-23T13:44:01.285Z,9.8
2022-11-23T13:45:01.892Z,9.8
2022-11-23T13:46:01.503Z,9.8
2022-11-23T13:47:01.093Z,9.8
2022-11-23T13:48:01.694Z,9.7
2022-11-23T13:49:01.278Z,9.8
2022-11-23T13:50:01.865Z,9.8
2022-11-23T13:51:01.453Z,9.7
2022-11-23T13:52:01.036Z,9.7
2022-11-23T13:53:01.651Z,9.7
2022-11-23T13:54:01.234Z,9.7
2022-11-23T13:55:07.320Z,9.6